Time;durP1;ratioP1;P1;durP2;ratioP2;P2;SDS_P1;SDS_P2;PMS_P1;PMS_P2;Temp;Humidity;BMP_temperature;BMP_pressure;BME280_temperature;BME280_humidity;BME280_pressure;Samples;Min_cycle;Max_cycle;Signal;HPM_P1;HPM_P2
2022/01/25 00:27:26;;;;;;;9.18;2.95;;;-18.40;99.90;;;;;;2220895;64;20131;-42
2022/01/25 00:32:15;;;;;;;5.20;2.13;;;-18.40;99.90;;;;;;2217198;64;20119;-46
2022/01/25 00:34:42;;;;;;;10.30;2.53;;;-18.30;99.90;;;;;;2216902;64;20582;-43
2022/01/25 00:37:09;;;;;;;1.60;0.40;;;-18.20;99.90;;;;;;2220871;64;20073;-45
2022/01/25 00:39:38;;;;;;;7.80;2.37;;;-18.10;99.90;;;;;;2220731;64;20084;-48
2022/01/25 00:42:06;;;;;;;0.60;0.60;;;-17.90;99.90;;;;;;2220836;64;20567;-47
2022/01/25 00:44:36;;;;;;;11.80;3.00;;;-17.90;99.90;;;;;;2220751;64;20084;-43
2022/01/25 00:47:05;;;;;;;6.17;1.90;;;-17.90;99.90;;;;;;2220806;64;20548;-46
2022/01/25 00:49:37;;;;;;;1.33;0.50;;;-17.80;99.90;;;;;;2220670;64;20177;-46
2022/01/25 00:52:18;;;;;;;10.13;3.40;;;-17.70;99.90;;;;;;2220822;64;20103;-48
2022/01/25 00:54:45;;;;;;;8.20;3.43;;;-17.70;99.90;;;;;;2220410;64;20201;-45
2022/01/25 00:57:11;;;;;;;6.03;2.57;;;-17.80;99.90;;;;;;2217041;64;20626;-47
2022/01/25 00:59:38;;;;;;;9.90;4.27;;;-17.90;99.90;;;;;;2220526;64;20441;-45
2022/01/25 01:02:07;;;;;;;0.53;0.53;;;-17.90;99.90;;;;;;2220716;64;20099;-44
2022/01/25 01:04:33;;;;;;;7.97;2.77;;;-17.80;99.90;;;;;;2220450;64;20173;-47
2022/01/25 01:07:06;;;;;;;5.43;2.57;;;-17.80;99.90;;;;;;2220790;64;20096;-47
2022/01/25 01:09:36;;;;;;;11.90;2.90;;;-17.90;99.90;;;;;;2220646;64;20180;-44
2022/01/25 01:12:11;;;;;;;8.87;2.27;;;-18.10;99.90;;;;;;2220489;64;20169;-47
2022/01/25 01:30:46;;;;;;;10.00;4.23;;;-18.10;99.90;;;;;;2214654;64;20084;-46
2022/01/25 01:44:23;;;;;;;3.50;1.73;;;-18.50;99.90;;;;;;2224399;64;20107;-48
2022/01/25 01:49:28;;;;;;;8.60;2.20;;;-18.60;99.90;;;;;;2210860;64;20101;-44
2022/01/25 01:51:55;;;;;;;7.63;2.90;;;-18.60;99.90;;;;;;2208193;64;20145;-46
2022/01/25 01:54:21;;;;;;;31.87;4.63;;;-18.70;99.90;;;;;;2211002;64;20180;-46
2022/01/25 01:56:48;;;;;;;6.77;2.20;;;-18.60;99.90;;;;;;2211152;64;20078;-47
2022/01/25 01:59:16;;;;;;;7.77;3.43;;;-18.60;99.90;;;;;;2207727;64;20093;-51
2022/01/25 02:01:43;;;;;;;7.90;2.47;;;-18.60;99.90;;;;;;2211260;64;20090;-45
2022/01/25 02:04:10;;;;;;;7.93;2.17;;;-18.60;99.90;;;;;;2211107;64;20097;-46
2022/01/25 02:06:39;;;;;;;4.10;2.17;;;-18.70;99.90;;;;;;2210949;64;20112;-47
2022/01/25 02:09:07;;;;;;;11.40;1.10;;;-18.70;99.90;;;;;;2211087;64;20169;-44
2022/01/25 02:11:33;;;;;;;6.87;2.40;;;-18.60;99.90;;;;;;2210964;64;20144;-47
2022/01/25 02:14:05;;;;;;;3.40;1.63;;;-18.40;99.90;;;;;;2211256;64;20549;-46
2022/01/25 02:24:43;;;;;;;4.07;1.70;;;-18.00;99.90;;;;;;2219257;64;20085;-49
2022/01/25 02:27:10;;;;;;;12.33;3.70;;;-17.90;99.90;;;;;;2220875;64;20582;-46
2022/01/25 02:29:36;;;;;;;9.83;3.73;;;-17.80;99.90;;;;;;2221287;64;20425;-47
2022/01/25 02:32:03;;;;;;;7.43;2.73;;;-17.60;99.90;;;;;;2217181;64;20492;-53
2022/01/25 02:34:30;;;;;;;4.97;2.83;;;-17.40;99.90;;;;;;2221111;64;20475;-47
2022/01/25 02:36:57;;;;;;;11.80;4.40;;;-17.20;99.90;;;;;;2220975;64;20100;-43
2022/01/25 02:39:24;;;;;;;13.17;4.77;;;-17.20;99.90;;;;;;2221098;64;20108;-46
2022/01/25 02:41:52;;;;;;;10.80;2.97;;;-17.10;99.90;;;;;;2220967;64;20544;-45
2022/01/25 02:44:24;;;;;;;7.37;2.37;;;-17.00;99.90;;;;;;2220881;64;20099;-46
2022/01/25 02:49:31;;;;;;;15.40;4.60;;;-16.80;99.90;;;;;;2221067;64;20491;-45
2022/01/25 02:51:57;;;;;;;12.57;4.73;;;-16.70;99.90;;;;;;2221237;64;20115;-51
2022/01/25 02:54:24;;;;;;;16.53;4.20;;;-16.60;99.90;;;;;;2221221;64;20511;-47
2022/01/25 02:56:50;;;;;;;12.33;4.50;;;-16.50;99.90;;;;;;2221023;64;20108;-48
2022/01/25 02:59:17;;;;;;;8.13;3.47;;;-16.40;99.90;;;;;;2221166;64;20474;-46
2022/01/25 03:01:45;;;;;;;5.87;3.03;;;-16.30;99.90;;;;;;2220821;64;20126;-52
2022/01/25 03:04:17;;;;;;;10.20;3.47;;;-16.30;99.90;;;;;;2220789;64;20645;-48
2022/01/25 03:06:44;;;;;;;12.10;4.27;;;-16.20;99.90;;;;;;2216925;64;20112;-50
2022/01/25 03:09:11;;;;;;;13.40;5.03;;;-16.10;99.90;;;;;;2220891;64;20093;-46
2022/01/25 03:11:37;;;;;;;11.93;4.27;;;-16.10;99.90;;;;;;2220954;64;20595;-50
2022/01/25 03:14:08;;;;;;;1.80;0.97;;;-16.00;99.90;;;;;;2221096;64;20085;-51
2022/01/25 03:16:41;;;;;;;9.70;3.87;;;-15.90;99.90;;;;;;2220948;64;20568;-44
2022/01/25 03:21:57;;;;;;;7.30;2.80;;;-15.80;99.90;;;;;;2221110;64;20564;-52
2022/01/25 03:24:24;;;;;;;18.50;8.43;;;-15.80;99.90;;;;;;2220896;64;20548;-45
2022/01/25 03:26:50;;;;;;;33.67;11.90;;;-15.70;99.90;;;;;;2224778;64;20127;-47
2022/01/25 03:29:17;;;;;;;30.10;11.40;;;-15.50;99.90;;;;;;2224597;64;20096;-51
2022/01/25 03:31:45;;;;;;;35.47;12.30;;;-15.40;99.90;;;;;;2224228;64;20145;-49
2022/01/25 03:34:12;;;;;;;14.83;5.50;;;-15.30;99.90;;;;;;2224863;64;20118;-52
2022/01/25 03:36:38;;;;;;;11.80;5.27;;;-15.20;99.90;;;;;;2224784;64;20103;-48
2022/01/25 03:39:06;;;;;;;15.43;7.07;;;-15.20;99.90;;;;;;2224849;64;20108;-54
2022/01/25 03:41:37;;;;;;;8.10;4.03;;;-15.10;99.90;;;;;;2224958;64;20548;-52
2022/01/25 03:44:07;;;;;;;4.03;1.80;;;-15.00;99.90;;;;;;2224608;64;20173;-50
2022/01/25 03:46:43;;;;;;;6.77;2.93;;;-15.00;99.90;;;;;;2224883;64;20094;-53
2022/01/25 03:51:55;;;;;;;14.33;6.17;;;-15.00;99.90;;;;;;2224890;64;20104;-52
2022/01/25 03:54:24;;;;;;;13.80;4.77;;;-15.00;99.90;;;;;;2224915;64;20080;-53
2022/01/25 03:56:53;;;;;;;11.53;4.13;;;-15.00;99.90;;;;;;2224894;64;20096;-54
2022/01/25 03:59:22;;;;;;;5.27;1.90;;;-14.90;99.90;;;;;;2225053;64;20548;-56
2022/01/25 04:01:49;;;;;;;1.07;1.03;;;-15.00;99.90;;;;;;2224640;64;20562;-56
2022/01/25 04:04:19;;;;;;;0.40;0.30;;;-14.90;99.90;;;;;;2224918;64;20092;-54
2022/01/25 04:06:50;;;;;;;5.00;2.27;;;-14.80;99.90;;;;;;2224781;64;20447;-54
2022/01/25 04:09:18;;;;;;;3.97;0.90;;;-14.80;99.90;;;;;;2224934;64;20159;-57
2022/01/25 04:11:46;;;;;;;2.47;0.97;;;-14.80;99.90;;;;;;2217006;64;20475;-54
2022/01/25 04:14:13;;;;;;;5.33;2.13;;;-14.80;99.90;;;;;;2224727;64;20192;-50
2022/01/25 04:16:51;;;;;;;2.27;2.07;;;-14.80;99.90;;;;;;2224389;64;20514;-51
2022/01/25 04:19:44;;;;;;;8.13;1.10;;;-14.80;99.90;;;;;;2224749;64;20122;-50
2022/01/25 04:27:26;;;;;;;10.63;3.77;;;-14.80;99.90;;;;;;2220535;64;20564;-48
2022/01/25 04:29:52;;;;;;;11.30;4.37;;;-14.90;99.90;;;;;;2220835;64;20073;-48
2022/01/25 04:32:20;;;;;;;11.87;3.60;;;-15.00;99.90;;;;;;2220694;64;20096;-50
2022/01/25 04:49:03;;;;;;;6.90;2.53;;;-15.30;99.90;;;;;;2217147;64;20104;-48
2022/01/25 04:56:43;;;;;;;19.63;6.80;;;-15.20;99.90;;;;;;2217005;64;20468;-47
2022/01/25 05:01:47;;;;;;;16.90;7.37;;;-15.30;99.90;;;;;;2217104;64;20468;-48
2022/01/25 05:04:21;;;;;;;10.80;5.33;;;-15.30;99.90;;;;;;2220441;64;20095;-43
2022/01/25 05:06:51;;;;;;;16.90;7.53;;;-15.30;99.90;;;;;;2216891;64;20085;-47
2022/01/25 05:09:20;;;;;;;15.10;7.00;;;-15.30;99.90;;;;;;2216613;64;20591;-47
2022/01/25 05:11:52;;;;;;;20.33;6.10;;;-15.30;99.90;;;;;;2220455;64;20552;-48
2022/01/25 05:14:24;;;;;;;13.20;7.00;;;-15.30;99.90;;;;;;2216583;64;20162;-43
2022/01/25 05:16:58;;;;;;;;;;;-15.30;99.90;;;;;;2220733;64;20096;-48
2022/01/25 05:22:05;;;;;;;13.63;7.17;;;-15.30;99.90;;;;;;2220491;64;20472;-44
2022/01/25 05:24:50;;;;;;;22.10;9.33;;;-15.30;99.90;;;;;;2220824;64;20096;-48
2022/01/25 05:27:19;;;;;;;28.95;8.73;;;-15.40;99.90;;;;;;2224184;64;20102;-44
2022/01/25 05:29:49;;;;;;;20.10;6.93;;;-15.40;99.90;;;;;;2224276;64;20189;-50
2022/01/25 05:32:16;;;;;;;23.03;8.33;;;-15.40;99.90;;;;;;2224271;64;20176;-46
2022/01/25 05:34:43;;;;;;;18.87;8.17;;;-15.40;99.90;;;;;;2224424;64;20088;-46
2022/01/25 05:37:12;;;;;;;14.37;6.03;;;-15.40;99.90;;;;;;2224509;64;20165;-46
2022/01/25 05:39:39;;;;;;;18.53;9.70;;;-15.30;99.90;;;;;;2213355;64;20088;-43
2022/01/25 05:42:42;;;;;;;20.73;6.00;;;-15.40;99.90;;;;;;2224536;64;20092;-48
2022/01/25 05:45:21;;;;;;;19.27;6.37;;;-15.40;99.90;;;;;;2224212;64;20111;-46
2022/01/25 05:47:52;;;;;;;18.42;7.70;;;-15.40;99.90;;;;;;2224354;64;20100;-44
2022/01/25 05:50:19;;;;;;;15.00;7.07;;;-15.40;99.90;;;;;;2224609;64;20095;-44
2022/01/25 05:52:47;;;;;;;24.00;7.60;;;-15.30;99.90;;;;;;2225139;64;20560;-47
2022/01/25 05:55:14;;;;;;;16.43;7.30;;;-15.20;99.90;;;;;;2224996;64;20100;-49
2022/01/25 05:57:42;;;;;;;20.37;7.83;;;-15.20;99.90;;;;;;2225178;64;20648;-54
2022/01/25 06:00:09;;;;;;;15.90;6.40;;;-15.10;99.90;;;;;;2221216;64;20537;-51
2022/01/25 06:02:36;;;;;;;16.80;7.10;;;-15.10;99.90;;;;;;2225137;64;20100;-46
2022/01/25 06:05:06;;;;;;;15.50;6.20;;;-15.00;99.90;;;;;;2221310;64;20092;-52
2022/01/25 06:07:33;;;;;;;18.80;7.10;;;-15.00;99.90;;;;;;2225154;64;20100;-44
2022/01/25 06:10:02;;;;;;;20.57;7.87;;;-14.90;99.90;;;;;;2224895;64;20578;-49
2022/01/25 06:12:30;;;;;;;16.07;6.03;;;-14.90;99.90;;;;;;2221175;64;20084;-49
2022/01/25 06:14:59;;;;;;;11.07;5.50;;;-15.00;99.90;;;;;;2221102;64;20194;-49
2022/01/25 06:17:26;;;;;;;16.27;8.23;;;-14.90;99.90;;;;;;2225072;64;20092;-54
2022/01/25 06:19:52;;;;;;;15.90;6.80;;;-14.90;99.90;;;;;;2224894;64;20472;-48
2022/01/25 06:22:23;;;;;;;15.37;6.60;;;-14.80;99.90;;;;;;2225051;64;20547;-52
2022/01/25 06:24:49;;;;;;;17.70;6.80;;;-14.70;99.90;;;;;;2223971;64;20077;-44
2022/01/25 06:27:19;;;;;;;11.57;5.57;;;-14.70;99.90;;;;;;2220843;64;20093;-45
2022/01/25 06:29:47;;;;;;;8.23;2.67;;;-14.60;99.90;;;;;;2217116;64;20189;-46
2022/01/25 06:32:16;;;;;;;8.90;2.50;;;-14.60;99.90;;;;;;2221155;64;20092;-50
2022/01/25 06:34:45;;;;;;;20.67;4.80;;;-14.40;99.90;;;;;;2221018;64;20103;-48
2022/01/25 06:37:15;;;;;;;20.77;8.57;;;-14.30;99.90;;;;;;2220956;64;20101;-42
2022/01/25 06:39:41;;;;;;;17.33;6.07;;;-14.20;99.90;;;;;;2220863;64;20475;-46
2022/01/25 06:42:08;;;;;;;21.70;6.80;;;-14.00;99.90;;;;;;2221156;64;20095;-48
2022/01/25 06:44:37;;;;;;;20.83;9.93;;;-14.00;99.90;;;;;;2220972;64;20089;-47
2022/01/25 06:47:08;;;;;;;26.57;8.67;;;-13.80;99.90;;;;;;2221109;64;20100;-52
2022/01/25 06:49:36;;;;;;;20.87;7.37;;;-13.80;99.90;;;;;;2217067;64;20112;-52
2022/01/25 06:52:04;;;;;;;24.37;9.40;;;-13.70;99.90;;;;;;2217185;64;20350;-47
2022/01/25 06:54:32;;;;;;;16.60;7.53;;;-13.70;99.90;;;;;;2216228;64;20085;-42
2022/01/25 06:57:01;;;;;;;22.63;9.03;;;-13.70;99.90;;;;;;2217115;64;20101;-46
2022/01/25 06:59:27;;;;;;;23.00;8.37;;;-13.80;99.90;;;;;;2217052;64;20167;-47
2022/01/25 07:01:54;;;;;;;19.60;7.60;;;-13.70;99.90;;;;;;2216952;64;20137;-44
2022/01/25 07:04:20;;;;;;;14.47;5.00;;;-13.70;99.90;;;;;;2216974;64;20127;-45
2022/01/25 07:06:47;;;;;;;20.00;8.00;;;-13.70;99.90;;;;;;2217137;64;20077;-45
2022/01/25 07:09:14;;;;;;;23.30;7.73;;;-13.60;99.90;;;;;;2216972;64;20180;-46
2022/01/25 07:11:41;;;;;;;18.63;7.80;;;-13.60;99.90;;;;;;2217327;64;20089;-50
2022/01/25 07:14:12;;;;;;;16.03;6.60;;;-13.60;99.90;;;;;;2216502;64;20085;-55
2022/01/25 07:16:40;;;;;;;17.37;6.40;;;-13.50;99.90;;;;;;2216660;64;20105;-50
2022/01/25 07:19:08;;;;;;;15.23;6.43;;;-13.50;99.90;;;;;;2217107;64;20085;-46
2022/01/25 07:21:37;;;;;;;12.33;5.10;;;-13.30;99.90;;;;;;2209371;64;20074;-52
2022/01/25 07:24:05;;;;;;;17.07;5.83;;;-13.10;99.90;;;;;;2216530;64;20110;-48
2022/01/25 07:26:32;;;;;;;18.60;7.37;;;-13.00;99.90;;;;;;2217158;64;20203;-55
2022/01/25 07:29:00;;;;;;;17.53;7.40;;;-12.80;99.90;;;;;;2216808;64;20112;-55
2022/01/25 07:31:26;;;;;;;25.47;9.33;;;-12.70;99.90;;;;;;2217106;64;20101;-47
2022/01/25 07:33:54;;;;;;;20.00;7.90;;;-12.60;99.90;;;;;;2217101;64;20446;-50
2022/01/25 07:36:22;;;;;;;23.33;7.90;;;-12.50;99.90;;;;;;2212550;64;20081;-52
2022/01/25 07:38:51;;;;;;;16.20;7.73;;;-12.30;99.90;;;;;;2212852;64;20119;-48
2022/01/25 07:41:19;;;;;;;24.60;8.10;;;-12.20;99.90;;;;;;2217151;64;20127;-55
2022/01/25 07:43:49;;;;;;;17.67;8.00;;;-12.10;99.90;;;;;;2216791;64;20106;-57
2022/01/25 07:46:17;;;;;;;15.40;6.10;;;-12.10;99.90;;;;;;2217225;64;20113;-45
2022/01/25 07:48:45;;;;;;;19.73;7.63;;;-12.00;99.90;;;;;;2217061;64;20089;-45
2022/01/25 07:51:13;;;;;;;20.33;8.23;;;-11.90;99.90;;;;;;2216419;64;20085;-50
2022/01/25 07:53:44;;;;;;;19.70;8.57;;;-11.80;99.90;;;;;;2217355;64;20174;-50
2022/01/25 07:56:15;;;;;;;12.63;6.03;;;-11.70;99.90;;;;;;2224914;64;20077;-44
2022/01/25 07:58:42;;;;;;;18.83;7.70;;;-11.50;99.90;;;;;;2224687;64;20586;-46
2022/01/25 08:01:09;;;;;;;20.07;8.17;;;-11.40;99.90;;;;;;2224824;64;20085;-48
2022/01/25 08:03:36;;;;;;;22.30;8.57;;;-11.30;99.90;;;;;;2220880;64;20551;-44
2022/01/25 08:06:03;;;;;;;20.10;6.67;;;-11.30;99.90;;;;;;2224768;64;20088;-46
2022/01/25 08:08:30;;;;;;;17.40;7.00;;;-11.20;99.90;;;;;;2224401;64;20088;-44
2022/01/25 08:11:00;;;;;;;22.70;8.47;;;-11.10;99.90;;;;;;2224632;64;20098;-46
2022/01/25 08:13:27;;;;;;;16.40;6.17;;;-11.00;99.90;;;;;;2224378;64;20193;-44
2022/01/25 08:15:55;;;;;;;21.87;10.70;;;-11.10;99.90;;;;;;2224512;64;20173;-48
2022/01/25 08:18:22;;;;;;;19.33;8.43;;;-11.10;99.90;;;;;;2224595;64;20483;-50
2022/01/25 08:20:52;;;;;;;15.30;5.33;;;-11.00;99.90;;;;;;2220833;64;20111;-50
2022/01/25 08:23:25;;;;;;;19.70;7.83;;;-10.90;99.90;;;;;;2220945;64;20538;-47
2022/01/25 08:25:54;;;;;;;16.47;5.67;;;-10.90;99.90;;;;;;2221975;64;20116;-50
2022/01/25 08:28:21;;;;;;;15.10;4.93;;;-10.80;99.90;;;;;;2216556;64;20181;-51
2022/01/25 08:30:47;;;;;;;13.23;4.97;;;-10.70;99.90;;;;;;2216808;64;20127;-53
2022/01/25 08:33:14;;;;;;;2.40;1.60;;;-10.70;99.90;;;;;;2220684;64;20092;-51
2022/01/25 08:35:40;;;;;;;4.50;2.13;;;-10.70;99.90;;;;;;2220725;64;20101;-55
2022/01/25 08:38:07;;;;;;;4.33;2.03;;;-10.80;99.90;;;;;;2220611;64;20488;-52
2022/01/25 08:40:34;;;;;;;14.33;5.60;;;-10.70;99.90;;;;;;2220835;64;20084;-51
2022/01/25 08:43:01;;;;;;;14.20;5.20;;;-10.70;99.90;;;;;;2220634;64;20099;-53
2022/01/25 08:45:28;;;;;;;13.50;4.93;;;-10.50;99.90;;;;;;2216632;64;20099;-50
2022/01/25 08:47:54;;;;;;;15.27;7.20;;;-10.40;99.90;;;;;;2216724;64;20256;-51
2022/01/25 08:50:20;;;;;;;13.27;5.50;;;-10.20;99.90;;;;;;2220711;64;20106;-47
2022/01/25 08:52:47;;;;;;;15.83;6.50;;;-10.10;99.90;;;;;;2220720;64;20492;-52
2022/01/25 08:55:14;;;;;;;11.73;4.27;;;-9.90;99.90;;;;;;2220669;64;20107;-48
2022/01/25 08:57:40;;;;;;;8.47;2.93;;;-9.70;99.90;;;;;;2220422;64;20093;-49
2022/01/25 09:00:08;;;;;;;11.87;4.53;;;-9.50;99.90;;;;;;2220565;64;20084;-54
2022/01/25 09:02:35;;;;;;;18.13;7.73;;;-9.40;99.90;;;;;;2220587;64;20084;-50
2022/01/25 09:05:02;;;;;;;13.30;5.77;;;-9.20;99.90;;;;;;2220699;64;20098;-49
2022/01/25 09:07:30;;;;;;;10.60;3.67;;;-9.00;99.90;;;;;;2216655;64;20575;-50
2022/01/25 09:09:56;;;;;;;18.83;7.70;;;-8.90;99.90;;;;;;2220599;64;20108;-47
2022/01/25 09:12:22;;;;;;;13.80;5.57;;;-8.90;99.90;;;;;;2220607;64;20088;-51
2022/01/25 09:14:49;;;;;;;17.63;4.77;;;-8.80;99.90;;;;;;2216911;64;20180;-47
2022/01/25 09:17:15;;;;;;;14.87;5.87;;;-8.70;99.90;;;;;;2216782;64;20103;-49
2022/01/25 09:19:42;;;;;;;11.60;3.73;;;-8.70;99.90;;;;;;2216816;64;20096;-51
2022/01/25 09:22:08;;;;;;;17.30;5.87;;;-8.50;99.90;;;;;;2220507;64;20092;-51
2022/01/25 09:24:37;;;;;;;15.57;4.80;;;-8.40;99.90;;;;;;2216985;64;20115;-48
2022/01/25 09:27:05;;;;;;;11.67;3.87;;;-8.40;99.90;;;;;;2224271;64;20095;-49
2022/01/25 09:29:32;;;;;;;7.37;3.13;;;-8.30;99.90;;;;;;2220305;64;20544;-46
2022/01/25 09:31:58;;;;;;;9.97;4.67;;;-8.20;99.90;;;;;;2220386;64;20080;-49
2022/01/25 09:34:26;;;;;;;15.90;5.30;;;-8.10;99.90;;;;;;2224294;64;20108;-51
2022/01/25 09:36:53;;;;;;;4.03;1.67;;;-7.90;99.90;;;;;;2224363;64;20176;-48
2022/01/25 09:39:21;;;;;;;8.40;2.77;;;-7.70;99.90;;;;;;2224598;64;20099;-42
2022/01/25 09:41:48;;;;;;;14.50;5.50;;;-7.60;99.90;;;;;;2214808;64;20093;-43
2022/01/25 09:44:15;;;;;;;10.53;4.07;;;-7.40;99.90;;;;;;2214997;64;20156;-44
2022/01/25 09:46:43;;;;;;;10.87;4.13;;;-7.30;99.90;;;;;;2214803;64;20602;-43
2022/01/25 09:49:10;;;;;;;5.97;2.93;;;-7.10;99.90;;;;;;2214675;64;20182;-45
2022/01/25 09:51:39;;;;;;;9.97;4.33;;;-6.90;99.90;;;;;;2215030;64;20190;-50
2022/01/25 09:54:06;;;;;;;10.00;3.43;;;-6.80;99.90;;;;;;2214880;64;21057;-44
2022/01/25 09:56:33;;;;;;;9.07;4.10;;;-6.60;99.90;;;;;;2214863;64;20496;-41
2022/01/25 09:59:00;;;;;;;10.17;4.30;;;-6.60;99.90;;;;;;2214780;64;20103;-43
2022/01/25 10:01:28;;;;;;;9.57;4.23;;;-6.60;99.90;;;;;;2214941;64;20093;-43
2022/01/25 10:03:54;;;;;;;11.17;5.83;;;-6.50;99.90;;;;;;2215038;64;20104;-44
2022/01/25 10:06:22;;;;;;;13.30;5.47;;;-6.50;99.90;;;;;;2214807;64;20111;-44
2022/01/25 10:08:52;;;;;;;15.40;5.70;;;-6.50;99.90;;;;;;2214810;64;20485;-49
2022/01/25 10:11:21;;;;;;;10.53;4.67;;;-6.40;99.90;;;;;;2215008;64;20089;-47
2022/01/25 10:13:50;;;;;;;14.37;5.83;;;-6.40;99.90;;;;;;2214870;64;20171;-48
2022/01/25 10:16:43;;;;;;;11.40;4.63;;;-6.30;99.90;;;;;;2214955;64;20584;-49
2022/01/25 10:19:12;;;;;;;12.80;4.00;;;-6.10;99.90;;;;;;2215616;64;20115;-54
2022/01/25 10:21:40;;;;;;;12.23;4.33;;;-6.00;99.90;;;;;;2224233;64;20072;-54
2022/01/25 10:24:17;;;;;;;14.53;4.33;;;-5.80;99.90;;;;;;2224214;64;20127;-51
2022/01/25 10:27:03;;;;;;;14.70;6.27;;;-5.80;99.90;;;;;;2220364;64;20092;-52
2022/01/25 10:29:34;;;;;;;17.50;7.47;;;-5.80;99.90;;;;;;2220259;64;20092;-55
2022/01/25 10:32:13;;;;;;;12.60;5.47;;;-6.30;99.90;;;;;;2220267;64;20188;-53
2022/01/25 10:34:44;;;;;;;21.10;8.20;;;-6.50;99.90;;;;;;2220296;64;20110;-60
2022/01/25 10:37:19;;;;;;;17.77;7.43;;;-6.50;99.90;;;;;;2220841;64;20110;-54
2022/01/25 10:39:46;;;;;;;14.63;6.30;;;-6.50;99.90;;;;;;2221027;64;20665;-50
2022/01/25 10:42:21;;;;;;;20.43;6.23;;;-6.40;99.90;;;;;;2220943;64;20111;-54
2022/01/25 10:45:10;;;;;;;14.50;5.97;;;-6.40;99.90;;;;;;2221201;64;20116;-58
2022/01/25 10:47:50;;;;;;;16.17;6.77;;;-6.30;99.90;;;;;;2220975;64;20168;-53
2022/01/25 10:50:31;;;;;;;18.93;6.47;;;-6.30;99.90;;;;;;2220807;64;20089;-57
2022/01/25 10:53:11;;;;;;;15.20;4.60;;;-6.30;99.90;;;;;;2210221;64;20095;-53
2022/01/25 10:55:45;;;;;;;13.20;6.60;;;-6.20;99.90;;;;;;2220765;64;20515;-51
2022/01/25 10:58:11;;;;;;;16.30;7.60;;;-6.30;99.90;;;;;;2220863;64;20084;-51
2022/01/25 11:00:45;;;;;;;24.30;8.10;;;-6.30;99.90;;;;;;2217163;64;20092;-48
2022/01/25 11:03:12;;;;;;;26.27;8.67;;;-6.50;99.90;;;;;;2220828;64;20088;-55
2022/01/25 11:05:40;;;;;;;16.90;6.57;;;-6.70;99.90;;;;;;2213719;64;20155;-55
2022/01/25 11:08:14;;;;;;;20.63;8.63;;;-6.90;99.90;;;;;;2220686;64;20093;-54
2022/01/25 11:10:48;;;;;;;19.07;7.87;;;-7.10;99.90;;;;;;2220884;64;20633;-60
2022/01/25 11:16:01;;;;;;;20.30;8.13;;;-7.10;99.90;;;;;;2221061;64;20092;-63
2022/01/25 11:18:29;;;;;;;21.30;9.70;;;-7.10;99.90;;;;;;2220684;64;20097;-60
2022/01/25 11:20:57;;;;;;;22.33;7.53;;;-7.00;99.90;;;;;;2217310;64;20187;-59
2022/01/25 11:23:23;;;;;;;21.53;8.73;;;-7.10;99.90;;;;;;2220884;64;20076;-60
2022/01/25 11:25:50;;;;;;;13.40;6.63;;;-7.30;99.90;;;;;;2219435;64;20101;-57
2022/01/25 11:28:16;;;;;;;19.10;8.00;;;-7.20;99.90;;;;;;2224579;64;20099;-56
2022/01/25 11:30:43;;;;;;;20.73;7.87;;;-7.00;99.90;;;;;;2224868;64;20179;-56
2022/01/25 11:33:10;;;;;;;14.53;6.43;;;-7.00;99.90;;;;;;2217646;64;20547;-50
2022/01/25 11:35:37;;;;;;;18.57;7.53;;;-6.90;99.90;;;;;;2220846;64;20119;-61
2022/01/25 11:38:05;;;;;;;22.40;7.83;;;-6.90;99.90;;;;;;2217674;64;20164;-58
2022/01/25 11:40:45;;;;;;;22.40;9.07;;;-6.90;99.90;;;;;;2224536;64;20122;-58
2022/01/25 11:43:14;;;;;;;22.73;8.73;;;-6.90;99.90;;;;;;2224444;64;20088;-57
2022/01/25 11:45:43;;;;;;;21.47;8.40;;;-7.00;99.90;;;;;;2224624;64;20143;-58
2022/01/25 11:48:10;;;;;;;20.77;8.57;;;-7.20;99.90;;;;;;2224248;64;20558;-61
2022/01/25 11:50:41;;;;;;;26.67;10.67;;;-7.40;99.90;;;;;;2224771;64;20088;-61
2022/01/25 11:53:15;;;;;;;21.83;9.03;;;-7.50;99.90;;;;;;2224765;64;20172;-56
2022/01/25 11:55:49;;;;;;;23.07;7.50;;;-7.70;99.90;;;;;;2224858;64;20119;-64
2022/01/25 11:58:30;;;;;;;25.17;8.77;;;-7.80;99.90;;;;;;2220972;64;20076;-60
2022/01/25 12:01:04;;;;;;;18.33;8.73;;;-7.90;99.90;;;;;;2224749;64;20085;-59
2022/01/25 12:03:34;;;;;;;24.48;8.95;;;-8.00;99.90;;;;;;2224524;64;20146;-48
2022/01/25 12:06:08;;;;;;;15.87;6.80;;;-8.40;99.90;;;;;;2224690;64;20081;-53
2022/01/25 12:08:50;;;;;;;19.85;7.75;;;-8.40;99.90;;;;;;2224458;64;20100;-49
2022/01/25 12:11:46;;;;;;;25.63;8.83;;;-8.60;99.90;;;;;;2221376;64;20088;-56
2022/01/25 12:14:38;;;;;;;16.73;6.28;;;-8.70;99.90;;;;;;2224469;64;20098;-57
2022/01/25 12:17:04;;;;;;;15.53;6.27;;;-9.00;99.90;;;;;;2224683;64;20084;-58
2022/01/25 12:19:31;;;;;;;17.00;7.50;;;-9.10;99.90;;;;;;2224506;64;20092;-60
2022/01/25 12:22:02;;;;;;;13.83;5.27;;;-9.20;99.90;;;;;;2224569;64;20196;-59
2022/01/25 12:25:03;;;;;;;20.53;7.00;;;-9.10;99.90;;;;;;2224063;64;20551;-57
2022/01/25 12:27:40;;;;;;;16.93;6.27;;;-9.30;99.90;;;;;;2220655;64;20107;-57
2022/01/25 12:30:12;;;;;;;15.27;5.87;;;-9.40;99.90;;;;;;2220522;64;20461;-58
2022/01/25 12:33:03;;;;;;;14.07;5.63;;;-9.40;99.90;;;;;;2220679;64;20433;-57
2022/01/25 12:35:54;;;;;;;17.33;6.50;;;-9.40;99.90;;;;;;2217040;64;20108;-57
2022/01/25 12:38:23;;;;;;;15.47;5.87;;;-9.50;99.90;;;;;;2216594;64;20110;-56
2022/01/25 12:40:55;;;;;;;15.13;5.83;;;-9.60;99.90;;;;;;2220434;64;20084;-55
2022/01/25 12:43:23;;;;;;;16.67;5.33;;;-9.70;99.90;;;;;;2216832;64;20099;-58
2022/01/25 12:46:02;;;;;;;12.77;4.47;;;-9.80;99.90;;;;;;2220526;64;20089;-54
2022/01/25 12:48:34;;;;;;;16.23;5.67;;;-9.90;99.90;;;;;;2220412;64;20737;-55
2022/01/25 12:51:03;;;;;;;16.97;5.67;;;-10.00;99.90;;;;;;2220476;64;20088;-56
2022/01/25 12:53:30;;;;;;;15.27;6.50;;;-10.10;99.90;;;;;;2220570;64;20093;-50
2022/01/25 12:56:00;;;;;;;15.47;6.20;;;-10.20;99.90;;;;;;2220223;64;20100;-50
2022/01/25 12:58:29;;;;;;;17.87;6.63;;;-10.30;99.90;;;;;;2220671;64;20619;-49
2022/01/25 13:00:57;;;;;;;16.50;5.27;;;-10.50;99.90;;;;;;2220402;64;20123;-48
2022/01/25 13:03:29;;;;;;;15.53;6.20;;;-10.60;99.90;;;;;;2220522;64;20642;-50
2022/01/25 13:06:02;;;;;;;13.73;5.23;;;-10.70;99.90;;;;;;2220388;64;20175;-53
2022/01/25 13:08:36;;;;;;;14.03;5.10;;;-10.70;99.90;;;;;;2207770;64;20097;-49
2022/01/25 13:11:20;;;;;;;18.90;5.53;;;-10.80;99.90;;;;;;2211145;64;20577;-50
2022/01/25 13:14:03;;;;;;;20.10;6.87;;;-10.90;99.90;;;;;;2211172;64;20101;-48
2022/01/25 13:16:55;;;;;;;11.00;4.47;;;-11.00;99.90;;;;;;2211042;64;20136;-48
2022/01/25 13:19:25;;;;;;;15.80;7.57;;;-11.10;99.90;;;;;;2208191;64;20077;-55
2022/01/25 13:22:14;;;;;;;13.90;5.67;;;-11.20;99.90;;;;;;2210836;64;20239;-47
2022/01/25 13:24:55;;;;;;;14.20;5.33;;;-11.30;99.90;;;;;;2211690;64;20480;-45
2022/01/25 13:27:22;;;;;;;14.50;6.10;;;-11.40;99.90;;;;;;2212020;64;20097;-47
2022/01/25 13:32:50;;;;;;;16.60;6.07;;;-11.60;99.90;;;;;;2212051;64;20210;-50
2022/01/25 13:35:27;;;;;;;14.70;3.70;;;-11.70;99.90;;;;;;2214840;64;20588;-49
2022/01/25 13:38:38;;;;;;;15.63;4.10;;;-11.80;99.90;;;;;;2211899;64;20105;-47
2022/01/25 13:46:23;;;;;;;14.57;4.97;;;-12.10;99.90;;;;;;2220513;64;20270;-50
2022/01/25 13:48:50;;;;;;;15.20;4.73;;;-12.30;99.90;;;;;;2224021;64;20534;-50
2022/01/25 13:51:18;;;;;;;18.60;6.63;;;-12.30;99.90;;;;;;2220457;64;20123;-50
2022/01/25 13:53:59;;;;;;;13.67;3.93;;;-12.40;99.90;;;;;;2220307;64;20487;-49
2022/01/25 13:56:29;;;;;;;12.10;4.70;;;-12.40;99.90;;;;;;2224111;64;20088;-50
2022/01/25 13:58:55;;;;;;;13.60;3.70;;;-12.50;99.90;;;;;;2224274;64;20102;-48
2022/01/25 14:01:23;;;;;;;17.23;5.20;;;-12.50;99.90;;;;;;2224312;64;20145;-48
2022/01/25 14:03:57;;;;;;;19.53;7.00;;;-12.60;99.90;;;;;;2224324;64;20076;-45
2022/01/25 14:06:31;;;;;;;18.25;8.45;;;-12.70;99.90;;;;;;2220503;64;20088;-48
2022/01/25 14:09:06;;;;;;;15.02;5.85;;;-12.70;99.90;;;;;;2224336;64;20108;-50
2022/01/25 14:25:36;;;;;;;19.33;7.33;;;-12.90;99.90;;;;;;2217581;64;20093;-46
2022/01/25 14:28:05;;;;;;;13.67;6.13;;;-13.00;99.90;;;;;;2220894;64;20093;-52
2022/01/25 14:30:40;;;;;;;20.20;8.00;;;-13.00;99.90;;;;;;2220841;64;20092;-45
2022/01/25 14:33:13;;;;;;;21.40;7.90;;;-13.00;99.90;;;;;;2221063;64;20526;-45
2022/01/25 14:35:44;;;;;;;18.73;7.03;;;-13.00;99.90;;;;;;2220847;64;20099;-47
2022/01/25 14:38:27;;;;;;;25.37;7.77;;;-13.00;99.90;;;;;;2221091;64;20548;-54
2022/01/25 14:41:10;;;;;;;16.70;8.00;;;-13.00;99.90;;;;;;2217005;64;20098;-51
2022/01/25 14:43:50;;;;;;;21.40;8.17;;;-13.00;99.90;;;;;;2220999;64;20131;-45
2022/01/25 14:46:20;;;;;;;28.97;9.50;;;-12.90;99.90;;;;;;2220739;64;20073;-49
2022/01/25 14:49:07;;;;;;;13.37;5.93;;;-12.90;99.90;;;;;;2220808;64;20129;-48
2022/01/25 14:51:35;;;;;;;20.33;4.87;;;-12.90;99.90;;;;;;2220592;64;20545;-45
2022/01/25 14:54:03;;;;;;;12.57;3.97;;;-12.90;99.90;;;;;;2217015;64;20081;-46
2022/01/25 14:56:31;;;;;;;9.80;3.57;;;-12.90;99.90;;;;;;2220845;64;20445;-48
2022/01/25 15:02:10;;;;;;;13.60;4.33;;;-12.90;99.90;;;;;;2217819;64;20109;-48